Queen Of Cowichan — CZ4990 — position and weather

sailwx.info

Track history (hours):
 
Tides and Currents Weather Stations Pressure Air Temp Water Temp Dewpoint Dewpoint Depression Visibility Wind Speed Wind Dir Waves Ship Positions

Queen Of Cowichan

Last reported at 2019-Feb-22 22:30 UTC. Time now 2019-Feb-22 22:40 UTC.
Position N 49°14' W 123°54'.

Length 139 m.

Type: Passenger vessel. MMSI: 316001251.

Date/timePositionNaut miles runAvg speedWind from/ knotsBaromVisibWave heightAir tempDewpointWater temp
2019-Feb-22 22:30N 49°14' W 123°54'919.0
2019-Feb-22 22:00N 49°17' W 123°40'1019.2
2019-Feb-22 21:30N 49°19' W 123°26'714.0
2019-Feb-22 21:00N 49°23' W 123°16'0 0.0
2019-Feb-22 20:30N 49°23' W 123°16'510.3
2019-Feb-22 20:01N 49°19' W 123°22'1019.2
2019-Feb-22 19:30N 49°16' W 123°36'1019.4
2019-Feb-22 19:01N 49°14' W 123°51'5 9.8
2019-Feb-22 18:30N 49°12' W 123°57'2 3.4
2019-Feb-22 18:00N 49°13' W 123°55'1019.1
2019-Feb-22 17:30N 49°17' W 123°42'1019.5
2019-Feb-22 17:00N 49°19' W 123°28'816.9
2019-Feb-22 16:30N 49°23' W 123°16'0 0.7
2019-Feb-22 16:00N 49°23' W 123°16'612.9
2019-Feb-22 15:30N 49°19' W 123°24'1019.2
2019-Feb-22 15:00N 49°16' W 123°38'1019.2
2019-Feb-22 14:30N 49°14' W 123°52'4 7.5
2019-Feb-22 14:00N 49°12' W 123°57'0 0.1
2019-Feb-22 13:28N 49°12' W 123°57'0 0.1
2019-Feb-22 12:46N 49°12' W 123°57'0 0.0
2019-Feb-22 12:28N 49°12' W 123°57'0 0.0
2019-Feb-22 11:58N 49°12' W 123°57'0 0.0
2019-Feb-22 11:28N 49°12' W 123°57'0 0.0
2019-Feb-22 10:58N 49°12' W 123°57'0 0.0
2019-Feb-22 10:28N 49°12' W 123°57'0 0.0
2019-Feb-22 09:52N 49°12' W 123°57'0 0.0
2019-Feb-22 09:28N 49°12' W 123°57'0 0.0
2019-Feb-22 08:52N 49°12' W 123°57'0 0.0
2019-Feb-22 08:22N 49°12' W 123°57'0 0.0
2019-Feb-22 07:59N 49°12' W 123°57'714.0
2019-Feb-22 07:31N 49°15' W 123°48'1019.8
2019-Feb-22 07:01N 49°18' W 123°34'1019.3
2019-Feb-22 06:30N 49°21' W 123°20'3 5.9
2019-Feb-22 06:00N 49°23' W 123°16'0 0.5
2019-Feb-22 05:30N 49°23' W 123°16'815.8
2019-Feb-22 05:00N 49°26' W 123°27'1 1.1
2019-Feb-22 04:30N 49°26' W 123°28'714.7
2019-Feb-22 04:00N 49°25' W 123°17'2 4.3
2019-Feb-22 03:30N 49°23' W 123°16'4 8.6
2019-Feb-22 03:00N 49°26' W 123°21'5 9.6
2019-Feb-22 02:30N 49°26' W 123°28'2 3.0
2019-Feb-22 02:00N 49°25' W 123°26'714.2
2019-Feb-22 01:30N 49°23' W 123°16'0 0.5
2019-Feb-22 01:00N 49°23' W 123°16'815.8
2019-Feb-22 00:30N 49°18' W 123°26'1019.2
2019-Feb-22 00:00N 49°16' W 123°40'1019.3
2019-Feb-21 23:30N 49°13' W 123°54'2 5.0
2019-Feb-21 23:00N 49°12' W 123°57'2 4.8
2019-Feb-21 22:30N 49°13' W 123°54'1019.4
2019-Feb-21 22:01N 49°16' W 123°41'1019.5
2019-Feb-21 21:30N 49°19' W 123°26'714.8
2019-Feb-21 21:00N 49°23' W 123°16'0 0.1
2019-Feb-21 20:30N 49°23' W 123°16'5 9.7
2019-Feb-21 20:00N 49°19' W 123°22'1019.2
2019-Feb-21 19:30N 49°16' W 123°36'1019.2
2019-Feb-21 19:00N 49°14' W 123°50'5 9.5
2019-Feb-21 18:27N 49°12' W 123°57'1 2.5
2019-Feb-21 18:00N 49°12' W 123°56'919.1
2019-Feb-21 17:30N 49°16' W 123°43'1019.4
2019-Feb-21 17:00N 49°19' W 123°28'917.9
2019-Feb-21 16:30N 49°23' W 123°16'1 1.0
2019-Feb-21 16:00N 49°23' W 123°16'612.8
2019-Feb-21 15:30N 49°18' W 123°23'1019.3
2019-Feb-21 15:01N 49°15' W 123°37'1019.4
2019-Feb-21 14:30N 49°14' W 123°52'4 7.9
2019-Feb-21 14:00N 49°12' W 123°57'0 0.0
2019-Feb-21 13:30N 49°12' W 123°57'0 0.0
2019-Feb-21 12:59N 49°12' W 123°57'0 0.0
2019-Feb-21 12:23N 49°12' W 123°57'0 0.0
2019-Feb-21 11:59N 49°12' W 123°57'0 0.0
2019-Feb-21 11:29N 49°12' W 123°57'0 0.0
2019-Feb-21 10:53N 49°12' W 123°57'0 0.0
2019-Feb-21 10:29N 49°12' W 123°57'0 0.0
2019-Feb-21 09:59N 49°12' W 123°57'0 0.0
2019-Feb-21 09:26N 49°12' W 123°57'0 0.0
2019-Feb-21 08:56N 49°12' W 123°57'0 0.0
2019-Feb-21 08:29N 49°12' W 123°57'0 0.0
2019-Feb-21 07:59N 49°12' W 123°57'613.5
2019-Feb-21 07:30N 49°15' W 123°49'1019.9
2019-Feb-21 07:01N 49°17' W 123°34'1019.3
2019-Feb-21 06:30N 49°21' W 123°20'3 6.1
2019-Feb-21 06:00N 49°23' W 123°16'0 0.7
2019-Feb-21 05:30N 49°23' W 123°16'816.0
2019-Feb-21 05:00N 49°26' W 123°28'0 0.7
2019-Feb-21 04:30N 49°26' W 123°28'714.8
2019-Feb-21 04:00N 49°24' W 123°17'2 3.6
2019-Feb-21 03:31N 49°23' W 123°16'5 9.9
2019-Feb-21 03:00N 49°25' W 123°23'4 7.7
2019-Feb-21 02:31N 49°26' W 123°28'2 4.2
2019-Feb-21 02:00N 49°25' W 123°25'613.0
2019-Feb-21 01:30N 49°23' W 123°16'0 0.3
2019-Feb-21 01:01N 49°23' W 123°16'815.2
2019-Feb-21 00:31N 49°18' W 123°25'1019.3
2019-Feb-21 00:00N 49°15' W 123°40'1019.2
2019-Feb-20 23:31N 49°13' W 123°54'3 5.4
2019-Feb-20 23:00N 49°12' W 123°57'2 4.4
2019-Feb-20 22:30N 49°13' W 123°55'1019.2
2019-Feb-20 22:00N 49°17' W 123°41'1019.3
2019-Feb-20 21:30N 49°19' W 123°27'815.3
2019-Feb-20 21:00N 49°23' W 123°16'0 0.1
2019-Feb-20 20:30N 49°23' W 123°16'4 8.1
2019-Feb-20 20:00N 49°20' W 123°21'1019.2
2019-Feb-20 19:30N 49°16' W 123°35'1019.3
2019-Feb-20 19:00N 49°14' W 123°49'611.8
2019-Feb-20 18:30N 49°12' W 123°57'1 1.8
2019-Feb-20 18:00N 49°12' W 123°57'1019.3
2019-Feb-20 17:30N 49°16' W 123°43'1019.5
2019-Feb-20 17:00N 49°19' W 123°28'918.0
2019-Feb-20 16:30N 49°23' W 123°16'1 1.1
2019-Feb-20 16:00N 49°23' W 123°16'611.7
2019-Feb-20 15:30N 49°19' W 123°23'1019.4
2019-Feb-20 15:00N 49°16' W 123°37'1019.3
2019-Feb-20 14:30N 49°14' W 123°52'4 8.0
2019-Feb-20 14:00N 49°12' W 123°57'0 0.0
2019-Feb-20 13:30N 49°12' W 123°57'0 0.0
2019-Feb-20 12:58N 49°12' W 123°57'0 0.0
2019-Feb-20 11:43N 49°12' W 123°57'0 0.0
2019-Feb-20 11:07N 49°12' W 123°57'0 0.0
2019-Feb-20 10:43N 49°12' W 123°57'0 0.0
2019-Feb-20 09:55N 49°12' W 123°57'0 0.0
2019-Feb-20 08:49N 49°12' W 123°57'0 0.0
2019-Feb-20 08:31N 49°12' W 123°57'0 0.0
2019-Feb-20 08:00N 49°12' W 123°57'611.7
2019-Feb-20 07:30N 49°14' W 123°50'1019.3
2019-Feb-20 07:00N 49°17' W 123°36'1019.4
2019-Feb-20 06:30N 49°20' W 123°21'4 8.5
2019-Feb-20 06:00N 49°23' W 123°16'1 2.8
2019-Feb-20 05:30N 49°24' W 123°16'816.1
2019-Feb-20 05:00N 49°26' W 123°28'1 1.1
2019-Feb-20 04:30N 49°26' W 123°27'713.9
2019-Feb-20 04:00N 49°24' W 123°17'3 2.9
2019-Feb-20 03:00N 49°25' W 123°21'5 9.4
2019-Feb-20 02:30N 49°26' W 123°28'3 5.1
2019-Feb-20 02:00N 49°25' W 123°25'612.1
2019-Feb-20 01:30N 49°23' W 123°16'0 0.4
2019-Feb-20 01:00N 49°23' W 123°16'816.1
2019-Feb-20 00:31N 49°18' W 123°26'1019.3
2019-Feb-20 00:01N 49°16' W 123°41'1019.4
2019-Feb-19 23:30N 49°13' W 123°55'2 4.1
2019-Feb-19 23:00N 49°12' W 123°57'3 5.2
2019-Feb-19 22:30N 49°13' W 123°54'1019.4
2019-Feb-19 22:00N 49°17' W 123°40'1019.5
2019-Feb-19 21:30N 49°19' W 123°26'714.4
2019-Feb-19 21:00N 49°23' W 123°16'0 0.1
2019-Feb-19 20:31N 49°23' W 123°16'5 9.7
2019-Feb-19 20:01N 49°19' W 123°22'1019.1
2019-Feb-19 19:30N 49°16' W 123°36'1019.2
2019-Feb-19 19:00N 49°14' W 123°50'510.8
2019-Feb-19 18:30N 49°12' W 123°57'1 1.4
2019-Feb-19 18:01N 49°12' W 123°57'1019.1
2019-Feb-19 17:30N 49°16' W 123°43'1019.5
2019-Feb-19 17:00N 49°19' W 123°29'918.2
2019-Feb-19 16:30N 49°23' W 123°17'1 1.1
2019-Feb-19 16:00N 49°23' W 123°16'613.0
2019-Feb-19 15:31N 49°19' W 123°24'1019.4
2019-Feb-19 15:01N 49°16' W 123°38'1019.4
2019-Feb-19 14:30N 49°14' W 123°53'3 6.9
2019-Feb-19 14:00N 49°12' W 123°57'0 0.0
2019-Feb-19 13:30N 49°12' W 123°57'0 0.0
2019-Feb-19 12:59N 49°12' W 123°57'0 0.0
2019-Feb-19 12:23N 49°12' W 123°57'0 0.0
2019-Feb-19 11:59N 49°12' W 123°57'0 0.0
2019-Feb-19 11:26N 49°12' W 123°57'0 0.0
2019-Feb-19 10:56N 49°12' W 123°57'0 0.0
2019-Feb-19 10:29N 49°12' W 123°57'0 0.0
2019-Feb-19 09:59N 49°12' W 123°57'0 0.0
2019-Feb-19 09:17N 49°12' W 123°57'0 0.0
2019-Feb-19 08:53N 49°12' W 123°57'0 0.0
2019-Feb-19 08:29N 49°12' W 123°57'0 0.0
2019-Feb-19 07:59N 49°12' W 123°57'612.0
2019-Feb-19 07:30N 49°14' W 123°50'1019.6
2019-Feb-19 07:00N 49°17' W 123°35'1019.6
2019-Feb-19 06:30N 49°20' W 123°21'4 8.1
2019-Feb-19 06:00N 49°23' W 123°16'1 1.2
2019-Feb-19 05:30N 49°23' W 123°16'816.1
2019-Feb-19 05:00N 49°26' W 123°28'0 0.3
2019-Feb-19 04:30N 49°26' W 123°28'714.9
2019-Feb-19 04:00N 49°24' W 123°17'2 3.4
2019-Feb-19 03:30N 49°23' W 123°16'510.3
2019-Feb-19 03:00N 49°25' W 123°23'4 7.2
2019-Feb-19 02:31N 49°26' W 123°28'2 3.3
2019-Feb-19 02:00N 49°25' W 123°26'713.8
2019-Feb-19 01:30N 49°23' W 123°16'0 0.2
2019-Feb-19 01:00N 49°23' W 123°16'815.4
2019-Feb-19 00:31N 49°19' W 123°26'1020.3
2019-Feb-19 00:00N 49°16' W 123°41'1019.8
2019-Feb-18 23:31N 49°13' W 123°55'2 3.2
2019-Feb-18 23:00N 49°12' W 123°57'2 4.1
2019-Feb-18 22:30N 49°13' W 123°55'1019.5
2019-Feb-18 22:00N 49°17' W 123°41'1019.4
2019-Feb-18 21:30N 49°19' W 123°27'815.2
2019-Feb-18 21:00N 49°23' W 123°16'0 0.1
2019-Feb-18 20:30N 49°23' W 123°16'5 9.8
2019-Feb-18 20:00N 49°19' W 123°22'1019.3
2019-Feb-18 19:30N 49°16' W 123°36'1019.5
2019-Feb-18 19:00N 49°14' W 123°50'5 9.9
2019-Feb-18 18:30N 49°12' W 123°57'1 3.0
2019-Feb-18 18:01N 49°13' W 123°56'918.5
2019-Feb-18 17:31N 49°16' W 123°43'918.6
2019-Feb-18 17:00N 49°19' W 123°29'917.6
2019-Feb-18 16:30N 49°23' W 123°17'1 1.9
2019-Feb-18 16:00N 49°23' W 123°16'611.4
2019-Feb-18 15:30N 49°19' W 123°23'1019.6
2019-Feb-18 15:00N 49°16' W 123°37'1019.6
2019-Feb-18 14:30N 49°14' W 123°52'4 7.9
2019-Feb-18 14:00N 49°12' W 123°57'0 0.0
2019-Feb-18 13:30N 49°12' W 123°57'0 0.0
2019-Feb-18 13:00N 49°12' W 123°57'0 0.0
2019-Feb-18 12:27N 49°12' W 123°57'0 0.0
2019-Feb-18 12:00N 49°12' W 123°57'0 0.0
2019-Feb-18 11:30N 49°12' W 123°57'0 0.0
2019-Feb-18 11:00N 49°12' W 123°57'0 0.0
2019-Feb-18 10:24N 49°12' W 123°57'0 0.0
2019-Feb-18 09:48N 49°12' W 123°57'0 0.0
2019-Feb-18 09:27N 49°12' W 123°57'0 0.0
2019-Feb-18 09:00N 49°12' W 123°57'0 0.0
2019-Feb-18 08:30N 49°12' W 123°57'0 0.0
2019-Feb-18 08:00N 49°12' W 123°57'611.5
2019-Feb-18 07:30N 49°14' W 123°50'1019.6
2019-Feb-18 07:00N 49°17' W 123°35'918.6
2019-Feb-18 06:30N 49°20' W 123°22'5 9.1
2019-Feb-18 06:00N 49°23' W 123°16'1 3.0
2019-Feb-18 05:30N 49°24' W 123°16'816.0
2019-Feb-18 05:00N 49°26' W 123°28'1 1.2
2019-Feb-18 04:30N 49°26' W 123°27'714.9
2019-Feb-18 04:00N 49°23' W 123°17'1 1.8
2019-Feb-18 03:31N 49°23' W 123°16'4 8.3
2019-Feb-18 03:00N 49°26' W 123°21'5 9.9
2019-Feb-18 02:30N 49°26' W 123°28'3 5.5
2019-Feb-18 02:00N 49°25' W 123°24'611.7
2019-Feb-18 01:30N 49°23' W 123°16'0 0.1
2019-Feb-18 01:00N 49°23' W 123°16'713.2
2019-Feb-18 00:30N 49°19' W 123°24'1020.7
2019-Feb-18 00:01N 49°16' W 123°40'1020.3
2019-Feb-17 23:30N 49°13' W 123°55'2 4.6
2019-Feb-17 23:00N 49°12' W 123°57'5 8.0
2019-Feb-17 22:22N 49°14' W 123°51'719.4
2019-Feb-17 22:00N 49°17' W 123°40'1119.1
2019-Feb-17 21:27N 49°19' W 123°25'6 7.4
2019-Feb-17 20:36N 49°23' W 123°16'2 4.2
2019-Feb-17 20:12N 49°22' W 123°19'417.1
2019-Feb-17 19:58N 49°19' W 123°23'918.9
2019-Feb-17 19:30N 49°16' W 123°36'1019.0
2019-Feb-17 19:00N 49°14' W 123°50'4 3.9
2019-Feb-17 18:01N 49°13' W 123°56'024.6
2019-Feb-17 18:01N 49°13' W 123°55'1019.1
2019-Feb-17 17:30N 49°16' W 123°42'918.9
2019-Feb-17 17:00N 49°19' W 123°28'6 4.1
2019-Feb-17 15:39N 49°21' W 123°20'318.7
2019-Feb-17 15:29N 49°19' W 123°24'1119.3
2019-Feb-17 14:55N 49°15' W 123°39'919.2
2019-Feb-17 14:29N 49°14' W 123°52'3 0.4
2019-Feb-17 07:45N 49°12' W 123°56'517.9
2019-Feb-17 07:28N 49°15' W 123°49'919.4
2019-Feb-17 07:00N 49°17' W 123°35'10 4.6
2019-Feb-17 04:49N 49°26' W 123°28'7 9.3
2019-Feb-17 04:05N 49°25' W 123°18'3 5.4
2019-Feb-17 03:30N 49°23' W 123°16'4 7.9
2019-Feb-17 03:00N 49°26' W 123°20'510.7
2019-Feb-17 02:31N 49°26' W 123°28'4 6.9
2019-Feb-17 01:58N 49°25' W 123°23'5 6.0
2019-Feb-17 01:08N 49°23' W 123°16'1 3.7
2019-Feb-17 00:48N 49°23' W 123°18'518.3
2019-Feb-17 00:30N 49°19' W 123°24'1120.8
2019-Feb-16 23:58N 49°16' W 123°41'5 2.6
2019-Feb-16 22:15N 49°15' W 123°47'619.2
2019-Feb-16 21:56N 49°17' W 123°39'919.3
2019-Feb-16 21:29N 49°19' W 123°26'714.8
2019-Feb-16 21:00N 49°23' W 123°16'0 0.1
2019-Feb-16 20:31N 49°23' W 123°16'510.5
2019-Feb-16 20:00N 49°19' W 123°23'918.1
2019-Feb-16 19:30N 49°16' W 123°36'918.9
2019-Feb-16 19:00N 49°14' W 123°50'611.1
2019-Feb-16 18:30N 49°12' W 123°57'2 3.3
2019-Feb-16 18:00N 49°13' W 123°55'918.8
2019-Feb-16 17:30N 49°16' W 123°42'919.0
2019-Feb-16 17:00N 49°19' W 123°28'917.5
2019-Feb-16 16:30N 49°23' W 123°16'1 1.2
2019-Feb-16 16:00N 49°23' W 123°16'612.1
2019-Feb-16 15:30N 49°19' W 123°24'1019.9
2019-Feb-16 15:00N 49°15' W 123°38'1019.6
2019-Feb-16 14:30N 49°14' W 123°53'4 7.3
2019-Feb-16 14:00N 49°12' W 123°57'0 0.1
2019-Feb-16 13:30N 49°12' W 123°57'0 0.1
2019-Feb-16 12:57N 49°12' W 123°57'0 0.0
2019-Feb-16 12:30N 49°12' W 123°57'0 0.0
2019-Feb-16 12:00N 49°12' W 123°57'0 0.0
2019-Feb-16 11:24N 49°12' W 123°57'0 0.0
2019-Feb-16 10:57N 49°12' W 123°57'0 0.0
2019-Feb-16 10:30N 49°12' W 123°57'0 0.0
2019-Feb-16 10:00N 49°12' W 123°57'0 0.0
2019-Feb-16 09:30N 49°12' W 123°57'0 0.0
2019-Feb-16 09:00N 49°12' W 123°57'0 0.0
2019-Feb-16 08:30N 49°12' W 123°57'0 0.0
2019-Feb-16 08:00N 49°12' W 123°57'612.6
2019-Feb-16 07:31N 49°15' W 123°49'1019.1
2019-Feb-16 07:00N 49°17' W 123°35'919.0
2019-Feb-16 06:31N 49°20' W 123°21'4 8.1
2019-Feb-16 06:01N 49°23' W 123°16'0 0.9
2019-Feb-16 05:30N 49°23' W 123°16'816.2
2019-Feb-16 05:00N 49°26' W 123°28'0 0.5
2019-Feb-16 04:30N 49°26' W 123°28'714.6
2019-Feb-16 04:00N 49°25' W 123°17'2 4.1
2019-Feb-16 03:31N 49°23' W 123°16'4 7.7
2019-Feb-16 03:00N 49°26' W 123°20'510.9
2019-Feb-16 02:30N 49°26' W 123°28'3 5.2
2019-Feb-16 02:01N 49°25' W 123°24'612.0
2019-Feb-16 01:30N 49°23' W 123°16'0 0.0
2019-Feb-16 01:00N 49°23' W 123°16'713.9
2019-Feb-16 00:30N 49°19' W 123°25'1020.0
2019-Feb-16 00:00N 49°16' W 123°40'1020.3
2019-Feb-15 23:31N 49°13' W 123°55'2 4.6
2019-Feb-15 23:00N 49°12' W 123°57'3 5.6
2019-Feb-15 22:30N 49°13' W 123°54'1019.2
2019-Feb-15 22:00N 49°17' W 123°40'1019.3
2019-Feb-15 21:30N 49°20' W 123°26'714.0
2019-Feb-15 21:00N 49°23' W 123°16'0 0.1
2019-Feb-15 20:30N 49°23' W 123°16'510.2
2019-Feb-15 20:01N 49°19' W 123°22'1019.0
2019-Feb-15 19:30N 49°17' W 123°36'1019.2
2019-Feb-15 19:01N 49°14' W 123°50'510.2
2019-Feb-15 18:30N 49°12' W 123°57'2 3.1
2019-Feb-15 18:00N 49°13' W 123°56'918.9
2019-Feb-15 17:30N 49°16' W 123°42'1019.0
2019-Feb-15 17:00N 49°19' W 123°28'917.5
2019-Feb-15 16:30N 49°23' W 123°16'1 1.2
2019-Feb-15 16:00N 49°23' W 123°16'612.1
2019-Feb-15 15:30N 49°19' W 123°24'1019.2
2019-Feb-15 15:00N 49°16' W 123°38'1019.2
2019-Feb-15 14:31N 49°14' W 123°52'4 8.1
2019-Feb-15 14:00N 49°12' W 123°57'0 0.1
2019-Feb-15 13:30N 49°12' W 123°57'0 0.1
2019-Feb-15 12:55N 49°12' W 123°57'0 0.0
2019-Feb-15 12:25N 49°12' W 123°57'0 0.0
2019-Feb-15 11:55N 49°12' W 123°57'0 0.0
2019-Feb-15 11:25N 49°12' W 123°57'0 0.0
2019-Feb-15 10:49N 49°12' W 123°57'0 0.0
2019-Feb-15 10:13N 49°12' W 123°57'0 0.0
2019-Feb-15 09:49N 49°12' W 123°57'0 0.0
2019-Feb-15 09:25N 49°12' W 123°57'0 0.0
2019-Feb-15 08:49N 49°12' W 123°57'0 0.0
2019-Feb-15 08:13N 49°12' W 123°57'0 0.0
2019-Feb-15 07:58N 49°12' W 123°57'511.7
2019-Feb-15 07:30N 49°14' W 123°50'1020.0
2019-Feb-15 07:00N 49°17' W 123°35'1019.9
2019-Feb-15 06:31N 49°20' W 123°21'4 7.7
2019-Feb-15 06:01N 49°23' W 123°16'2 4.9
2019-Feb-15 05:30N 49°25' W 123°17'714.5
2019-Feb-15 05:00N 49°26' W 123°28'0 0.2
2019-Feb-15 04:30N 49°26' W 123°28'714.7
2019-Feb-15 04:00N 49°25' W 123°17'2 4.2
2019-Feb-15 03:31N 49°23' W 123°16'4 8.2
2019-Feb-15 03:00N 49°26' W 123°21'510.0
2019-Feb-15 02:30N 49°26' W 123°28'3 5.6
2019-Feb-15 02:00N 49°25' W 123°24'611.6
2019-Feb-15 01:30N 49°23' W 123°16'1 1.4
2019-Feb-15 01:00N 49°23' W 123°17'917.2
2019-Feb-15 00:30N 49°18' W 123°27'1019.1
2019-Feb-15 00:00N 49°16' W 123°41'1019.1
2019-Feb-14 23:30N 49°13' W 123°55'2 3.6
2019-Feb-14 23:00N 49°12' W 123°57'3 7.0
2019-Feb-14 22:31N 49°14' W 123°53'1019.1
2019-Feb-14 22:00N 49°17' W 123°39'919.1
2019-Feb-14 21:31N 49°19' W 123°25'713.3
2019-Feb-14 21:00N 49°23' W 123°16'0 0.1
2019-Feb-14 20:30N 49°23' W 123°16'510.6
2019-Feb-14 20:00N 49°19' W 123°23'917.8
2019-Feb-14 19:30N 49°16' W 123°36'918.8
2019-Feb-14 19:00N 49°14' W 123°50'611.2
2019-Feb-14 18:30N 49°12' W 123°57'2 3.7
2019-Feb-14 18:00N 49°13' W 123°55'918.4
2019-Feb-14 17:30N 49°16' W 123°42'918.5
2019-Feb-14 17:00N 49°19' W 123°28'917.6
2019-Feb-14 16:30N 49°23' W 123°17'1 1.9
2019-Feb-14 16:00N 49°23' W 123°16'612.2
2019-Feb-14 15:30N 49°19' W 123°24'919.0
2019-Feb-14 15:00N 49°16' W 123°38'1019.0
2019-Feb-14 14:30N 49°14' W 123°52'4 8.7
2019-Feb-14 14:00N 49°12' W 123°57'0 0.1
2019-Feb-14 13:30N 49°12' W 123°57'0 0.1
2019-Feb-14 12:59N 49°12' W 123°57'0 0.0
2019-Feb-14 12:29N 49°12' W 123°57'0 0.0
2019-Feb-14 11:56N 49°12' W 123°57'0 0.0
2019-Feb-14 11:29N 49°12' W 123°57'0 0.0
2019-Feb-14 10:56N 49°12' W 123°57'0 0.0
2019-Feb-14 10:29N 49°12' W 123°57'0 0.0
2019-Feb-14 09:53N 49°12' W 123°57'0 0.0
2019-Feb-14 09:26N 49°12' W 123°57'0 0.0
2019-Feb-14 08:59N 49°12' W 123°57'0 0.0
2019-Feb-14 08:20N 49°12' W 123°57'0 0.0
2019-Feb-14 08:01N 49°12' W 123°57'713.1
2019-Feb-14 07:30N 49°15' W 123°49'1018.9
2019-Feb-14 07:00N 49°17' W 123°35'918.9
2019-Feb-14 06:30N 49°20' W 123°21'4 7.6
2019-Feb-14 06:00N 49°23' W 123°16'0 0.3
2019-Feb-14 05:30N 49°23' W 123°16'815.2
2019-Feb-14 05:00N 49°26' W 123°27'1 1.7
2019-Feb-14 04:30N 49°26' W 123°28'714.6
2019-Feb-14 04:00N 49°24' W 123°17'3 2.9
2019-Feb-14 03:00N 49°25' W 123°21'5 9.3
2019-Feb-14 02:30N 49°26' W 123°28'3 5.4
2019-Feb-14 02:00N 49°25' W 123°24'611.8
2019-Feb-14 01:30N 49°23' W 123°16'1 1.2
2019-Feb-14 01:00N 49°23' W 123°17'917.1
2019-Feb-14 00:31N 49°18' W 123°27'918.4
2019-Feb-14 00:01N 49°16' W 123°41'918.5
2019-Feb-13 23:30N 49°13' W 123°54'2 4.9
2019-Feb-13 23:00N 49°12' W 123°57'3 5.6
2019-Feb-13 22:31N 49°13' W 123°54'1019.5
2019-Feb-13 22:01N 49°17' W 123°40'1019.5
2019-Feb-13 21:31N 49°18' W 123°25'714.3
2019-Feb-13 21:00N 49°23' W 123°16'0 0.1
2019-Feb-13 20:30N 49°23' W 123°16'510.4
2019-Feb-13 20:00N 49°19' W 123°22'1019.3
2019-Feb-13 19:30N 49°16' W 123°36'1019.3
2019-Feb-13 19:00N 49°14' W 123°51'5 9.4
2019-Feb-13 18:30N 49°12' W 123°57'1 3.0
2019-Feb-13 18:01N 49°13' W 123°56'1019.1
2019-Feb-13 17:30N 49°16' W 123°42'1019.5
2019-Feb-13 17:00N 49°18' W 123°27'917.3
2019-Feb-13 16:30N 49°23' W 123°16'0 0.9
2019-Feb-13 16:00N 49°23' W 123°16'713.5
2019-Feb-13 15:31N 49°18' W 123°24'1019.1
2019-Feb-13 15:01N 49°16' W 123°38'1019.4
2019-Feb-13 14:30N 49°13' W 123°53'3 6.9
2019-Feb-13 14:00N 49°12' W 123°57'0 0.0
2019-Feb-13 13:30N 49°12' W 123°57'0 0.0
2019-Feb-13 13:00N 49°12' W 123°57'0 0.0
2019-Feb-13 12:30N 49°12' W 123°57'0 0.0
2019-Feb-13 11:54N 49°12' W 123°57'0 0.0
2019-Feb-13 11:30N 49°12' W 123°57'0 0.0
2019-Feb-13 10:54N 49°12' W 123°57'0 0.0
2019-Feb-13 10:30N 49°12' W 123°57'0 0.0
2019-Feb-13 10:00N 49°12' W 123°57'0 0.0
2019-Feb-13 09:30N 49°12' W 123°57'0 0.0
2019-Feb-13 09:00N 49°12' W 123°57'0 0.0
2019-Feb-13 08:24N 49°12' W 123°57'0 0.0
2019-Feb-13 08:00N 49°12' W 123°57'713.5
2019-Feb-13 07:30N 49°15' W 123°48'1019.5
2019-Feb-13 07:00N 49°18' W 123°34'1019.1
2019-Feb-13 06:30N 49°21' W 123°20'3 6.4
2019-Feb-13 06:00N 49°23' W 123°16'2 4.4
2019-Feb-13 05:30N 49°25' W 123°17'714.9
2019-Feb-13 05:00N 49°26' W 123°28'0 0.3
2019-Feb-13 04:30N 49°26' W 123°28'714.9
2019-Feb-13 04:00N 49°25' W 123°17'2 4.6
2019-Feb-13 03:30N 49°23' W 123°16'4 8.4
2019-Feb-13 03:00N 49°25' W 123°21'5 9.6
2019-Feb-13 02:30N 49°26' W 123°28'2 4.8
2019-Feb-13 02:01N 49°25' W 123°25'612.4
2019-Feb-13 01:30N 49°23' W 123°16'1 1.2
2019-Feb-13 01:00N 49°23' W 123°17'816.4
2019-Feb-13 00:30N 49°18' W 123°26'918.7
2019-Feb-13 00:00N 49°15' W 123°40'918.7
2019-Feb-12 23:30N 49°13' W 123°54'3 5.3
2019-Feb-12 23:00N 49°12' W 123°57'3 5.7
2019-Feb-12 22:30N 49°13' W 123°54'  
Track history (hours):
 
Tides and Currents Weather Stations Pressure Air Temp Water Temp Dewpoint Dewpoint Depression Visibility Wind Speed Wind Dir Waves Ship Positions

Queen Of Cowichan

Last reported at 2019-Feb-22 22:30 UTC. Time now 2019-Feb-22 22:40 UTC.
Position N 49°14' W 123°54'.

Length 139 m.

Type: Passenger vessel. MMSI: 316001251.

Date/timePositionNaut miles runAvg speedWind from/ knotsBaromVisibWave heightAir tempDewpointWater temp
2019-Feb-22 22:30N 49°14' W 123°54'919.0
2019-Feb-22 22:00N 49°17' W 123°40'1019.2
2019-Feb-22 21:30N 49°19' W 123°26'714.0
2019-Feb-22 21:00N 49°23' W 123°16'0 0.0
2019-Feb-22 20:30N 49°23' W 123°16'510.3
2019-Feb-22 20:01N 49°19' W 123°22'1019.2
2019-Feb-22 19:30N 49°16' W 123°36'1019.4
2019-Feb-22 19:01N 49°14' W 123°51'5 9.8
2019-Feb-22 18:30N 49°12' W 123°57'2 3.4
2019-Feb-22 18:00N 49°13' W 123°55'1019.1
2019-Feb-22 17:30N 49°17' W 123°42'1019.5
2019-Feb-22 17:00N 49°19' W 123°28'816.9
2019-Feb-22 16:30N 49°23' W 123°16'0 0.7
2019-Feb-22 16:00N 49°23' W 123°16'612.9
2019-Feb-22 15:30N 49°19' W 123°24'1019.2
2019-Feb-22 15:00N 49°16' W 123°38'1019.2
2019-Feb-22 14:30N 49°14' W 123°52'4 7.5
2019-Feb-22 14:00N 49°12' W 123°57'0 0.1
2019-Feb-22 13:28N 49°12' W 123°57'0 0.1
2019-Feb-22 12:46N 49°12' W 123°57'0 0.0
2019-Feb-22 12:28N 49°12' W 123°57'0 0.0
2019-Feb-22 11:58N 49°12' W 123°57'0 0.0
2019-Feb-22 11:28N 49°12' W 123°57'0 0.0
2019-Feb-22 10:58N 49°12' W 123°57'0 0.0
2019-Feb-22 10:28N 49°12' W 123°57'0 0.0
2019-Feb-22 09:52N 49°12' W 123°57'0 0.0
2019-Feb-22 09:28N 49°12' W 123°57'0 0.0
2019-Feb-22 08:52N 49°12' W 123°57'0 0.0
2019-Feb-22 08:22N 49°12' W 123°57'0 0.0
2019-Feb-22 07:59N 49°12' W 123°57'714.0
2019-Feb-22 07:31N 49°15' W 123°48'1019.8
2019-Feb-22 07:01N 49°18' W 123°34'1019.3
2019-Feb-22 06:30N 49°21' W 123°20'3 5.9
2019-Feb-22 06:00N 49°23' W 123°16'0 0.5
2019-Feb-22 05:30N 49°23' W 123°16'815.8
2019-Feb-22 05:00N 49°26' W 123°27'1 1.1
2019-Feb-22 04:30N 49°26' W 123°28'714.7
2019-Feb-22 04:00N 49°25' W 123°17'2 4.3
2019-Feb-22 03:30N 49°23' W 123°16'4 8.6
2019-Feb-22 03:00N 49°26' W 123°21'5 9.6
2019-Feb-22 02:30N 49°26' W 123°28'2 3.0
2019-Feb-22 02:00N 49°25' W 123°26'714.2
2019-Feb-22 01:30N 49°23' W 123°16'0 0.5
2019-Feb-22 01:00N 49°23' W 123°16'815.8
2019-Feb-22 00:30N 49°18' W 123°26'1019.2
2019-Feb-22 00:00N 49°16' W 123°40'1019.3
2019-Feb-21 23:30N 49°13' W 123°54'2 5.0
2019-Feb-21 23:00N 49°12' W 123°57'2 4.8
2019-Feb-21 22:30N 49°13' W 123°54'1019.4
2019-Feb-21 22:01N 49°16' W 123°41'1019.5
2019-Feb-21 21:30N 49°19' W 123°26'714.8
2019-Feb-21 21:00N 49°23' W 123°16'0 0.1
2019-Feb-21 20:30N 49°23' W 123°16'5 9.7
2019-Feb-21 20:00N 49°19' W 123°22'1019.2
2019-Feb-21 19:30N 49°16' W 123°36'1019.2
2019-Feb-21 19:00N 49°14' W 123°50'5 9.5
2019-Feb-21 18:27N 49°12' W 123°57'1 2.5
2019-Feb-21 18:00N 49°12' W 123°56'919.1
2019-Feb-21 17:30N 49°16' W 123°43'1019.4
2019-Feb-21 17:00N 49°19' W 123°28'917.9
2019-Feb-21 16:30N 49°23' W 123°16'1 1.0
2019-Feb-21 16:00N 49°23' W 123°16'612.8
2019-Feb-21 15:30N 49°18' W 123°23'1019.3
2019-Feb-21 15:01N 49°15' W 123°37'1019.4
2019-Feb-21 14:30N 49°14' W 123°52'4 7.9
2019-Feb-21 14:00N 49°12' W 123°57'0 0.0
2019-Feb-21 13:30N 49°12' W 123°57'0 0.0
2019-Feb-21 12:59N 49°12' W 123°57'0 0.0
2019-Feb-21 12:23N 49°12' W 123°57'0 0.0
2019-Feb-21 11:59N 49°12' W 123°57'0 0.0
2019-Feb-21 11:29N 49°12' W 123°57'0 0.0
2019-Feb-21 10:53N 49°12' W 123°57'0 0.0
2019-Feb-21 10:29N 49°12' W 123°57'0 0.0
2019-Feb-21 09:59N 49°12' W 123°57'0 0.0
2019-Feb-21 09:26N 49°12' W 123°57'0 0.0
2019-Feb-21 08:56N 49°12' W 123°57'0 0.0
2019-Feb-21 08:29N 49°12' W 123°57'0 0.0
2019-Feb-21 07:59N 49°12' W 123°57'613.5
2019-Feb-21 07:30N 49°15' W 123°49'1019.9
2019-Feb-21 07:01N 49°17' W 123°34'1019.3
2019-Feb-21 06:30N 49°21' W 123°20'3 6.1
2019-Feb-21 06:00N 49°23' W 123°16'0 0.7
2019-Feb-21 05:30N 49°23' W 123°16'816.0
2019-Feb-21 05:00N 49°26' W 123°28'0 0.7
2019-Feb-21 04:30N 49°26' W 123°28'714.8
2019-Feb-21 04:00N 49°24' W 123°17'2 3.6
2019-Feb-21 03:31N 49°23' W 123°16'5 9.9
2019-Feb-21 03:00N 49°25' W 123°23'4 7.7
2019-Feb-21 02:31N 49°26' W 123°28'2 4.2
2019-Feb-21 02:00N 49°25' W 123°25'613.0
2019-Feb-21 01:30N 49°23' W 123°16'0 0.3
2019-Feb-21 01:01N 49°23' W 123°16'815.2
2019-Feb-21 00:31N 49°18' W 123°25'1019.3
2019-Feb-21 00:00N 49°15' W 123°40'1019.2
2019-Feb-20 23:31N 49°13' W 123°54'3 5.4
2019-Feb-20 23:00N 49°12' W 123°57'2 4.4
2019-Feb-20 22:30N 49°13' W 123°55'1019.2
2019-Feb-20 22:00N 49°17' W 123°41'1019.3
2019-Feb-20 21:30N 49°19' W 123°27'815.3
2019-Feb-20 21:00N 49°23' W 123°16'0 0.1
2019-Feb-20 20:30N 49°23' W 123°16'4 8.1
2019-Feb-20 20:00N 49°20' W 123°21'1019.2
2019-Feb-20 19:30N 49°16' W 123°35'1019.3
2019-Feb-20 19:00N 49°14' W 123°49'611.8
2019-Feb-20 18:30N 49°12' W 123°57'1 1.8
2019-Feb-20 18:00N 49°12' W 123°57'1019.3
2019-Feb-20 17:30N 49°16' W 123°43'1019.5
2019-Feb-20 17:00N 49°19' W 123°28'918.0
2019-Feb-20 16:30N 49°23' W 123°16'1 1.1
2019-Feb-20 16:00N 49°23' W 123°16'611.7
2019-Feb-20 15:30N 49°19' W 123°23'1019.4
2019-Feb-20 15:00N 49°16' W 123°37'1019.3
2019-Feb-20 14:30N 49°14' W 123°52'4 8.0
2019-Feb-20 14:00N 49°12' W 123°57'0 0.0
2019-Feb-20 13:30N 49°12' W 123°57'0 0.0
2019-Feb-20 12:58N 49°12' W 123°57'0 0.0
2019-Feb-20 11:43N 49°12' W 123°57'0 0.0
2019-Feb-20 11:07N 49°12' W 123°57'0 0.0
2019-Feb-20 10:43N 49°12' W 123°57'0 0.0
2019-Feb-20 09:55N 49°12' W 123°57'0 0.0
2019-Feb-20 08:49N 49°12' W 123°57'0 0.0
2019-Feb-20 08:31N 49°12' W 123°57'0 0.0
2019-Feb-20 08:00N 49°12' W 123°57'611.7
2019-Feb-20 07:30N 49°14' W 123°50'1019.3
2019-Feb-20 07:00N 49°17' W 123°36'1019.4
2019-Feb-20 06:30N 49°20' W 123°21'4 8.5
2019-Feb-20 06:00N 49°23' W 123°16'1 2.8
2019-Feb-20 05:30N 49°24' W 123°16'816.1
2019-Feb-20 05:00N 49°26' W 123°28'1 1.1
2019-Feb-20 04:30N 49°26' W 123°27'713.9
2019-Feb-20 04:00N 49°24' W 123°17'3 2.9
2019-Feb-20 03:00N 49°25' W 123°21'5 9.4
2019-Feb-20 02:30N 49°26' W 123°28'3 5.1
2019-Feb-20 02:00N 49°25' W 123°25'612.1
2019-Feb-20 01:30N 49°23' W 123°16'0 0.4
2019-Feb-20 01:00N 49°23' W 123°16'816.1
2019-Feb-20 00:31N 49°18' W 123°26'1019.3
2019-Feb-20 00:01N 49°16' W 123°41'1019.4
2019-Feb-19 23:30N 49°13' W 123°55'2 4.1
2019-Feb-19 23:00N 49°12' W 123°57'3 5.2
2019-Feb-19 22:30N 49°13' W 123°54'1019.4
2019-Feb-19 22:00N 49°17' W 123°40'1019.5
2019-Feb-19 21:30N 49°19' W 123°26'714.4
2019-Feb-19 21:00N 49°23' W 123°16'0 0.1
2019-Feb-19 20:31N 49°23' W 123°16'5 9.7
2019-Feb-19 20:01N 49°19' W 123°22'1019.1
2019-Feb-19 19:30N 49°16' W 123°36'1019.2
2019-Feb-19 19:00N 49°14' W 123°50'510.8
2019-Feb-19 18:30N 49°12' W 123°57'1 1.4
2019-Feb-19 18:01N 49°12' W 123°57'1019.1
2019-Feb-19 17:30N 49°16' W 123°43'1019.5
2019-Feb-19 17:00N 49°19' W 123°29'918.2
2019-Feb-19 16:30N 49°23' W 123°17'1 1.1
2019-Feb-19 16:00N 49°23' W 123°16'613.0
2019-Feb-19 15:31N 49°19' W 123°24'1019.4
2019-Feb-19 15:01N 49°16' W 123°38'1019.4
2019-Feb-19 14:30N 49°14' W 123°53'3 6.9
2019-Feb-19 14:00N 49°12' W 123°57'0 0.0
2019-Feb-19 13:30N 49°12' W 123°57'0 0.0
2019-Feb-19 12:59N 49°12' W 123°57'0 0.0
2019-Feb-19 12:23N 49°12' W 123°57'0 0.0
2019-Feb-19 11:59N 49°12' W 123°57'0 0.0
2019-Feb-19 11:26N 49°12' W 123°57'0 0.0
2019-Feb-19 10:56N 49°12' W 123°57'0 0.0
2019-Feb-19 10:29N 49°12' W 123°57'0 0.0
2019-Feb-19 09:59N 49°12' W 123°57'0 0.0
2019-Feb-19 09:17N 49°12' W 123°57'0 0.0
2019-Feb-19 08:53N 49°12' W 123°57'0 0.0
2019-Feb-19 08:29N 49°12' W 123°57'0 0.0
2019-Feb-19 07:59N 49°12' W 123°57'612.0
2019-Feb-19 07:30N 49°14' W 123°50'1019.6
2019-Feb-19 07:00N 49°17' W 123°35'1019.6
2019-Feb-19 06:30N 49°20' W 123°21'4 8.1
2019-Feb-19 06:00N 49°23' W 123°16'1 1.2
2019-Feb-19 05:30N 49°23' W 123°16'816.1
2019-Feb-19 05:00N 49°26' W 123°28'0 0.3
2019-Feb-19 04:30N 49°26' W 123°28'714.9
2019-Feb-19 04:00N 49°24' W 123°17'2 3.4
2019-Feb-19 03:30N 49°23' W 123°16'510.3
2019-Feb-19 03:00N 49°25' W 123°23'4 7.2
2019-Feb-19 02:31N 49°26' W 123°28'2 3.3
2019-Feb-19 02:00N 49°25' W 123°26'713.8
2019-Feb-19 01:30N 49°23' W 123°16'0 0.2
2019-Feb-19 01:00N 49°23' W 123°16'815.4
2019-Feb-19 00:31N 49°19' W 123°26'1020.3
2019-Feb-19 00:00N 49°16' W 123°41'1019.8
2019-Feb-18 23:31N 49°13' W 123°55'2 3.2
2019-Feb-18 23:00N 49°12' W 123°57'2 4.1
2019-Feb-18 22:30N 49°13' W 123°55'1019.5
2019-Feb-18 22:00N 49°17' W 123°41'1019.4
2019-Feb-18 21:30N 49°19' W 123°27'815.2
2019-Feb-18 21:00N 49°23' W 123°16'0 0.1
2019-Feb-18 20:30N 49°23' W 123°16'5 9.8
2019-Feb-18 20:00N 49°19' W 123°22'1019.3
2019-Feb-18 19:30N 49°16' W 123°36'1019.5
2019-Feb-18 19:00N 49°14' W 123°50'5 9.9
2019-Feb-18 18:30N 49°12' W 123°57'1 3.0
2019-Feb-18 18:01N 49°13' W 123°56'918.5
2019-Feb-18 17:31N 49°16' W 123°43'918.6
2019-Feb-18 17:00N 49°19' W 123°29'917.6
2019-Feb-18 16:30N 49°23' W 123°17'1 1.9
2019-Feb-18 16:00N 49°23' W 123°16'611.4
2019-Feb-18 15:30N 49°19' W 123°23'1019.6
2019-Feb-18 15:00N 49°16' W 123°37'1019.6
2019-Feb-18 14:30N 49°14' W 123°52'4 7.9
2019-Feb-18 14:00N 49°12' W 123°57'0 0.0
2019-Feb-18 13:30N 49°12' W 123°57'0 0.0
2019-Feb-18 13:00N 49°12' W 123°57'0 0.0
2019-Feb-18 12:27N 49°12' W 123°57'0 0.0
2019-Feb-18 12:00N 49°12' W 123°57'0 0.0
2019-Feb-18 11:30N 49°12' W 123°57'0 0.0
2019-Feb-18 11:00N 49°12' W 123°57'0 0.0
2019-Feb-18 10:24N 49°12' W 123°57'0 0.0
2019-Feb-18 09:48N 49°12' W 123°57'0 0.0
2019-Feb-18 09:27N 49°12' W 123°57'0 0.0
2019-Feb-18 09:00N 49°12' W 123°57'0 0.0
2019-Feb-18 08:30N 49°12' W 123°57'0 0.0
2019-Feb-18 08:00N 49°12' W 123°57'611.5
2019-Feb-18 07:30N 49°14' W 123°50'1019.6
2019-Feb-18 07:00N 49°17' W 123°35'918.6
2019-Feb-18 06:30N 49°20' W 123°22'5 9.1
2019-Feb-18 06:00N 49°23' W 123°16'1 3.0
2019-Feb-18 05:30N 49°24' W 123°16'816.0
2019-Feb-18 05:00N 49°26' W 123°28'1 1.2
2019-Feb-18 04:30N 49°26' W 123°27'714.9
2019-Feb-18 04:00N 49°23' W 123°17'1 1.8
2019-Feb-18 03:31N 49°23' W 123°16'4 8.3
2019-Feb-18 03:00N 49°26' W 123°21'5 9.9
2019-Feb-18 02:30N 49°26' W 123°28'3 5.5
2019-Feb-18 02:00N 49°25' W 123°24'611.7
2019-Feb-18 01:30N 49°23' W 123°16'0 0.1
2019-Feb-18 01:00N 49°23' W 123°16'713.2
2019-Feb-18 00:30N 49°19' W 123°24'1020.7
2019-Feb-18 00:01N 49°16' W 123°40'1020.3
2019-Feb-17 23:30N 49°13' W 123°55'2 4.6
2019-Feb-17 23:00N 49°12' W 123°57'5 8.0
2019-Feb-17 22:22N 49°14' W 123°51'719.4
2019-Feb-17 22:00N 49°17' W 123°40'1119.1
2019-Feb-17 21:27N 49°19' W 123°25'6 7.4
2019-Feb-17 20:36N 49°23' W 123°16'2 4.2
2019-Feb-17 20:12N 49°22' W 123°19'417.1
2019-Feb-17 19:58N 49°19' W 123°23'918.9
2019-Feb-17 19:30N 49°16' W 123°36'1019.0
2019-Feb-17 19:00N 49°14' W 123°50'4 3.9
2019-Feb-17 18:01N 49°13' W 123°56'024.6
2019-Feb-17 18:01N 49°13' W 123°55'1019.1
2019-Feb-17 17:30N 49°16' W 123°42'918.9
2019-Feb-17 17:00N 49°19' W 123°28'6 4.1
2019-Feb-17 15:39N 49°21' W 123°20'318.7
2019-Feb-17 15:29N 49°19' W 123°24'1119.3
2019-Feb-17 14:55N 49°15' W 123°39'919.2
2019-Feb-17 14:29N 49°14' W 123°52'3 0.4
2019-Feb-17 07:45N 49°12' W 123°56'517.9
2019-Feb-17 07:28N 49°15' W 123°49'919.4
2019-Feb-17 07:00N 49°17' W 123°35'10 4.6
2019-Feb-17 04:49N 49°26' W 123°28'7 9.3
2019-Feb-17 04:05N 49°25' W 123°18'3 5.4
2019-Feb-17 03:30N 49°23' W 123°16'4 7.9
2019-Feb-17 03:00N 49°26' W 123°20'510.7
2019-Feb-17 02:31N 49°26' W 123°28'4 6.9
2019-Feb-17 01:58N 49°25' W 123°23'5 6.0
2019-Feb-17 01:08N 49°23' W 123°16'1 3.7
2019-Feb-17 00:48N 49°23' W 123°18'518.3
2019-Feb-17 00:30N 49°19' W 123°24'1120.8
2019-Feb-16 23:58N 49°16' W 123°41'5 2.6
2019-Feb-16 22:15N 49°15' W 123°47'619.2
2019-Feb-16 21:56N 49°17' W 123°39'919.3
2019-Feb-16 21:29N 49°19' W 123°26'714.8
2019-Feb-16 21:00N 49°23' W 123°16'0 0.1
2019-Feb-16 20:31N 49°23' W 123°16'510.5
2019-Feb-16 20:00N 49°19' W 123°23'918.1
2019-Feb-16 19:30N 49°16' W 123°36'918.9
2019-Feb-16 19:00N 49°14' W 123°50'611.1
2019-Feb-16 18:30N 49°12' W 123°57'2 3.3
2019-Feb-16 18:00N 49°13' W 123°55'918.8
2019-Feb-16 17:30N 49°16' W 123°42'919.0
2019-Feb-16 17:00N 49°19' W 123°28'917.5
2019-Feb-16 16:30N 49°23' W 123°16'1 1.2
2019-Feb-16 16:00N 49°23' W 123°16'612.1
2019-Feb-16 15:30N 49°19' W 123°24'1019.9
2019-Feb-16 15:00N 49°15' W 123°38'1019.6
2019-Feb-16 14:30N 49°14' W 123°53'4 7.3
2019-Feb-16 14:00N 49°12' W 123°57'0 0.1
2019-Feb-16 13:30N 49°12' W 123°57'0 0.1
2019-Feb-16 12:57N 49°12' W 123°57'0 0.0
2019-Feb-16 12:30N 49°12' W 123°57'0 0.0
2019-Feb-16 12:00N 49°12' W 123°57'0 0.0
2019-Feb-16 11:24N 49°12' W 123°57'0 0.0
2019-Feb-16 10:57N 49°12' W 123°57'0 0.0
2019-Feb-16 10:30N 49°12' W 123°57'0 0.0
2019-Feb-16 10:00N 49°12' W 123°57'0 0.0
2019-Feb-16 09:30N 49°12' W 123°57'0 0.0
2019-Feb-16 09:00N 49°12' W 123°57'0 0.0
2019-Feb-16 08:30N 49°12' W 123°57'0 0.0
2019-Feb-16 08:00N 49°12' W 123°57'612.6
2019-Feb-16 07:31N 49°15' W 123°49'1019.1
2019-Feb-16 07:00N 49°17' W 123°35'919.0
2019-Feb-16 06:31N 49°20' W 123°21'4 8.1
2019-Feb-16 06:01N 49°23' W 123°16'0 0.9
2019-Feb-16 05:30N 49°23' W 123°16'816.2
2019-Feb-16 05:00N 49°26' W 123°28'0 0.5
2019-Feb-16 04:30N 49°26' W 123°28'714.6
2019-Feb-16 04:00N 49°25' W 123°17'2 4.1
2019-Feb-16 03:31N 49°23' W 123°16'4 7.7
2019-Feb-16 03:00N 49°26' W 123°20'510.9
2019-Feb-16 02:30N 49°26' W 123°28'3 5.2
2019-Feb-16 02:01N 49°25' W 123°24'612.0
2019-Feb-16 01:30N 49°23' W 123°16'0 0.0
2019-Feb-16 01:00N 49°23' W 123°16'713.9
2019-Feb-16 00:30N 49°19' W 123°25'1020.0
2019-Feb-16 00:00N 49°16' W 123°40'1020.3
2019-Feb-15 23:31N 49°13' W 123°55'2 4.6
2019-Feb-15 23:00N 49°12' W 123°57'3 5.6
2019-Feb-15 22:30N 49°13' W 123°54'1019.2
2019-Feb-15 22:00N 49°17' W 123°40'1019.3
2019-Feb-15 21:30N 49°20' W 123°26'714.0
2019-Feb-15 21:00N 49°23' W 123°16'0 0.1
2019-Feb-15 20:30N 49°23' W 123°16'510.2
2019-Feb-15 20:01N 49°19' W 123°22'1019.0
2019-Feb-15 19:30N 49°17' W 123°36'1019.2
2019-Feb-15 19:01N 49°14' W 123°50'510.2
2019-Feb-15 18:30N 49°12' W 123°57'2 3.1
2019-Feb-15 18:00N 49°13' W 123°56'918.9
2019-Feb-15 17:30N 49°16' W 123°42'1019.0
2019-Feb-15 17:00N 49°19' W 123°28'917.5
2019-Feb-15 16:30N 49°23' W 123°16'1 1.2
2019-Feb-15 16:00N 49°23' W 123°16'612.1
2019-Feb-15 15:30N 49°19' W 123°24'1019.2
2019-Feb-15 15:00N 49°16' W 123°38'1019.2
2019-Feb-15 14:31N 49°14' W 123°52'4 8.1
2019-Feb-15 14:00N 49°12' W 123°57'0 0.1
2019-Feb-15 13:30N 49°12' W 123°57'0 0.1
2019-Feb-15 12:55N 49°12' W 123°57'0 0.0
2019-Feb-15 12:25N 49°12' W 123°57'0 0.0
2019-Feb-15 11:55N 49°12' W 123°57'0 0.0
2019-Feb-15 11:25N 49°12' W 123°57'0 0.0
2019-Feb-15 10:49N 49°12' W 123°57'0 0.0
2019-Feb-15 10:13N 49°12' W 123°57'0 0.0
2019-Feb-15 09:49N 49°12' W 123°57'0 0.0
2019-Feb-15 09:25N 49°12' W 123°57'0 0.0
2019-Feb-15 08:49N 49°12' W 123°57'0 0.0
2019-Feb-15 08:13N 49°12' W 123°57'0 0.0
2019-Feb-15 07:58N 49°12' W 123°57'511.7
2019-Feb-15 07:30N 49°14' W 123°50'1020.0
2019-Feb-15 07:00N 49°17' W 123°35'1019.9
2019-Feb-15 06:31N 49°20' W 123°21'4 7.7
2019-Feb-15 06:01N 49°23' W 123°16'2 4.9
2019-Feb-15 05:30N 49°25' W 123°17'714.5
2019-Feb-15 05:00N 49°26' W 123°28'0 0.2
2019-Feb-15 04:30N 49°26' W 123°28'714.7
2019-Feb-15 04:00N 49°25' W 123°17'2 4.2
2019-Feb-15 03:31N 49°23' W 123°16'4 8.2
2019-Feb-15 03:00N 49°26' W 123°21'510.0
2019-Feb-15 02:30N 49°26' W 123°28'3 5.6
2019-Feb-15 02:00N 49°25' W 123°24'611.6
2019-Feb-15 01:30N 49°23' W 123°16'1 1.4
2019-Feb-15 01:00N 49°23' W 123°17'917.2
2019-Feb-15 00:30N 49°18' W 123°27'1019.1
2019-Feb-15 00:00N 49°16' W 123°41'1019.1
2019-Feb-14 23:30N 49°13' W 123°55'2 3.6
2019-Feb-14 23:00N 49°12' W 123°57'3 7.0
2019-Feb-14 22:31N 49°14' W 123°53'1019.1
2019-Feb-14 22:00N 49°17' W 123°39'919.1
2019-Feb-14 21:31N 49°19' W 123°25'713.3
2019-Feb-14 21:00N 49°23' W 123°16'0 0.1
2019-Feb-14 20:30N 49°23' W 123°16'510.6
2019-Feb-14 20:00N 49°19' W 123°23'917.8
2019-Feb-14 19:30N 49°16' W 123°36'918.8
2019-Feb-14 19:00N 49°14' W 123°50'611.2
2019-Feb-14 18:30N 49°12' W 123°57'2 3.7
2019-Feb-14 18:00N 49°13' W 123°55'918.4
2019-Feb-14 17:30N 49°16' W 123°42'918.5
2019-Feb-14 17:00N 49°19' W 123°28'917.6
2019-Feb-14 16:30N 49°23' W 123°17'1 1.9
2019-Feb-14 16:00N 49°23' W 123°16'612.2
2019-Feb-14 15:30N 49°19' W 123°24'919.0
2019-Feb-14 15:00N 49°16' W 123°38'1019.0
2019-Feb-14 14:30N 49°14' W 123°52'4 8.7
2019-Feb-14 14:00N 49°12' W 123°57'0 0.1
2019-Feb-14 13:30N 49°12' W 123°57'0 0.1
2019-Feb-14 12:59N 49°12' W 123°57'0 0.0
2019-Feb-14 12:29N 49°12' W 123°57'0 0.0
2019-Feb-14 11:56N 49°12' W 123°57'0 0.0
2019-Feb-14 11:29N 49°12' W 123°57'0 0.0
2019-Feb-14 10:56N 49°12' W 123°57'0 0.0
2019-Feb-14 10:29N 49°12' W 123°57'0 0.0
2019-Feb-14 09:53N 49°12' W 123°57'0 0.0
2019-Feb-14 09:26N 49°12' W 123°57'0 0.0
2019-Feb-14 08:59N 49°12' W 123°57'0 0.0
2019-Feb-14 08:20N 49°12' W 123°57'0 0.0
2019-Feb-14 08:01N 49°12' W 123°57'713.1
2019-Feb-14 07:30N 49°15' W 123°49'1018.9
2019-Feb-14 07:00N 49°17' W 123°35'918.9
2019-Feb-14 06:30N 49°20' W 123°21'4 7.6
2019-Feb-14 06:00N 49°23' W 123°16'0 0.3
2019-Feb-14 05:30N 49°23' W 123°16'815.2
2019-Feb-14 05:00N 49°26' W 123°27'1 1.7
2019-Feb-14 04:30N 49°26' W 123°28'714.6
2019-Feb-14 04:00N 49°24' W 123°17'3 2.9
2019-Feb-14 03:00N 49°25' W 123°21'5 9.3
2019-Feb-14 02:30N 49°26' W 123°28'3 5.4
2019-Feb-14 02:00N 49°25' W 123°24'611.8
2019-Feb-14 01:30N 49°23' W 123°16'1 1.2
2019-Feb-14 01:00N 49°23' W 123°17'917.1
2019-Feb-14 00:31N 49°18' W 123°27'918.4
2019-Feb-14 00:01N 49°16' W 123°41'918.5
2019-Feb-13 23:30N 49°13' W 123°54'2 4.9
2019-Feb-13 23:00N 49°12' W 123°57'3 5.6
2019-Feb-13 22:31N 49°13' W 123°54'1019.5
2019-Feb-13 22:01N 49°17' W 123°40'1019.5
2019-Feb-13 21:31N 49°18' W 123°25'714.3
2019-Feb-13 21:00N 49°23' W 123°16'0 0.1
2019-Feb-13 20:30N 49°23' W 123°16'510.4
2019-Feb-13 20:00N 49°19' W 123°22'1019.3
2019-Feb-13 19:30N 49°16' W 123°36'1019.3
2019-Feb-13 19:00N 49°14' W 123°51'5 9.4
2019-Feb-13 18:30N 49°12' W 123°57'1 3.0
2019-Feb-13 18:01N 49°13' W 123°56'1019.1
2019-Feb-13 17:30N 49°16' W 123°42'1019.5
2019-Feb-13 17:00N 49°18' W 123°27'917.3
2019-Feb-13 16:30N 49°23' W 123°16'0 0.9
2019-Feb-13 16:00N 49°23' W 123°16'713.5
2019-Feb-13 15:31N 49°18' W 123°24'1019.1
2019-Feb-13 15:01N 49°16' W 123°38'1019.4
2019-Feb-13 14:30N 49°13' W 123°53'3 6.9
2019-Feb-13 14:00N 49°12' W 123°57'0 0.0
2019-Feb-13 13:30N 49°12' W 123°57'0 0.0
2019-Feb-13 13:00N 49°12' W 123°57'0 0.0
2019-Feb-13 12:30N 49°12' W 123°57'0 0.0
2019-Feb-13 11:54N 49°12' W 123°57'0 0.0
2019-Feb-13 11:30N 49°12' W 123°57'0 0.0
2019-Feb-13 10:54N 49°12' W 123°57'0 0.0
2019-Feb-13 10:30N 49°12' W 123°57'0 0.0
2019-Feb-13 10:00N 49°12' W 123°57'0 0.0
2019-Feb-13 09:30N 49°12' W 123°57'0 0.0
2019-Feb-13 09:00N 49°12' W 123°57'0 0.0
2019-Feb-13 08:24N 49°12' W 123°57'0 0.0
2019-Feb-13 08:00N 49°12' W 123°57'713.5
2019-Feb-13 07:30N 49°15' W 123°48'1019.5
2019-Feb-13 07:00N 49°18' W 123°34'1019.1
2019-Feb-13 06:30N 49°21' W 123°20'3 6.4
2019-Feb-13 06:00N 49°23' W 123°16'2 4.4
2019-Feb-13 05:30N 49°25' W 123°17'714.9
2019-Feb-13 05:00N 49°26' W 123°28'0 0.3
2019-Feb-13 04:30N 49°26' W 123°28'714.9
2019-Feb-13 04:00N 49°25' W 123°17'2 4.6
2019-Feb-13 03:30N 49°23' W 123°16'4 8.4
2019-Feb-13 03:00N 49°25' W 123°21'5 9.6
2019-Feb-13 02:30N 49°26' W 123°28'2 4.8
2019-Feb-13 02:01N 49°25' W 123°25'612.4
2019-Feb-13 01:30N 49°23' W 123°16'1 1.2
2019-Feb-13 01:00N 49°23' W 123°17'816.4
2019-Feb-13 00:30N 49°18' W 123°26'918.7
2019-Feb-13 00:00N 49°15' W 123°40'918.7
2019-Feb-12 23:30N 49°13' W 123°54'3 5.3
2019-Feb-12 23:00N 49°12' W 123°57'3 5.7
2019-Feb-12 22:30N 49°13' W 123°54'  

Dump ship's entire track history